Time;durP1;ratioP1;P1;durP2;ratioP2;P2;SDS_P1;SDS_P2;PMS_P1;PMS_P2;Temp;Humidity;BMP_temperature;BMP_pressure;BME280_temperature;BME280_humidity;BME280_pressure;Samples;Min_cycle;Max_cycle;Signal;HPM_P1;HPM_P2
2022/09/11 00:00:48;;;;;;;14.40;8.70;;;;;;;23.43;52.45;101766.56;4995681;28;20053;-73
2022/09/11 00:03:14;;;;;;;11.25;7.68;;;;;;;23.42;52.31;101764.91;4995508;28;20404;-74
2022/09/11 00:05:42;;;;;;;12.13;7.95;;;;;;;23.41;52.34;101773.88;4996679;28;20042;-72
2022/09/11 00:08:10;;;;;;;10.88;7.65;;;;;;;23.40;52.30;101769.56;4994901;28;20049;-71
2022/09/11 00:10:41;;;;;;;11.82;8.38;;;;;;;23.38;52.50;101775.06;4992901;28;20052;-71
2022/09/11 00:13:14;;;;;;;10.27;8.18;;;;;;;23.37;52.35;101765.44;4994035;28;20508;-71
2022/09/11 00:15:42;;;;;;;13.13;8.88;;;;;;;23.37;52.61;101761.97;4995321;28;20492;-71
2022/09/11 00:18:11;;;;;;;13.52;8.73;;;;;;;23.34;52.46;101755.19;4996711;28;20041;-71
2022/09/11 00:20:37;;;;;;;11.85;8.38;;;;;;;23.36;52.56;101755.00;4992612;28;20041;-71
2022/09/11 00:23:04;;;;;;;11.55;8.25;;;;;;;23.35;52.25;101750.69;4995957;28;20091;-73
2022/09/11 00:25:39;;;;;;;11.32;7.60;;;;;;;23.36;52.54;101753.16;4993348;28;20057;-71
2022/09/11 00:28:05;;;;;;;11.55;8.98;;;;;;;23.32;52.68;101756.34;4977075;28;20046;-72
2022/09/11 00:30:31;;;;;;;11.02;7.63;;;;;;;23.31;52.40;101771.47;4976259;28;20053;-71
2022/09/11 00:32:56;;;;;;;11.65;8.07;;;;;;;23.31;52.54;101760.00;4993361;28;20046;-72
2022/09/11 00:35:23;;;;;;;12.07;7.93;;;;;;;23.31;52.61;101760.84;4996691;28;20042;-71
2022/09/11 00:37:49;;;;;;;13.35;8.10;;;;;;;23.32;52.35;101764.31;4993972;28;20121;-72
2022/09/11 00:40:16;;;;;;;10.25;7.35;;;;;;;23.31;52.44;101767.97;4992599;28;20100;-72
2022/09/11 00:42:42;;;;;;;12.10;8.57;;;;;;;23.29;52.46;101762.03;4994959;28;20060;-72
2022/09/11 00:45:18;;;;;;;10.98;8.13;;;;;;;23.30;52.45;101771.66;4993142;28;20514;-72
2022/09/11 00:47:45;;;;;;;10.23;7.40;;;;;;;23.28;52.29;101773.66;4995308;28;20113;-72
2022/09/11 00:50:17;;;;;;;13.23;7.60;;;;;;;23.28;52.46;101768.34;4997332;28;20045;-72
2022/09/11 00:53:02;;;;;;;11.45;7.57;;;;;;;23.27;52.35;101778.16;4996795;28;20034;-72
2022/09/11 00:55:31;;;;;;;9.75;7.50;;;;;;;23.25;52.69;101774.03;4981063;28;21125;-72
2022/09/11 00:58:02;;;;;;;10.60;7.55;;;;;;;23.25;52.38;101772.19;4981760;28;20041;-72
2022/09/11 01:00:28;;;;;;;9.32;7.05;;;;;;;23.23;52.52;101781.34;4980864;28;20072;-72
2022/09/11 01:02:55;;;;;;;11.00;7.57;;;;;;;23.24;52.48;101775.03;5000315;28;20042;-72
2022/09/11 01:05:23;;;;;;;10.88;7.35;;;;;;;23.21;52.46;101779.69;4996100;28;20042;-71
2022/09/11 01:07:53;;;;;;;9.80;6.90;;;;;;;23.21;52.53;101771.72;4998103;28;20050;-71
2022/09/11 01:10:49;;;;;;;10.48;7.38;;;;;;;23.17;52.84;101770.44;4996801;28;20108;-72
2022/09/11 01:13:31;;;;;;;10.05;7.43;;;;;;;23.18;52.47;101771.28;4979872;28;20057;-72
2022/09/11 01:16:09;;;;;;;10.25;7.18;;;;;;;23.18;52.62;101769.44;4995469;28;20385;-71
2022/09/11 01:19:21;;;;;;;10.15;7.15;;;;;;;23.12;52.44;101767.47;4999442;28;20454;-71
2022/09/11 01:22:17;;;;;;;10.00;7.18;;;;;;;23.17;52.43;101764.31;4963879;28;20061;-71
2022/09/11 01:24:55;;;;;;;8.75;7.60;;;;;;;23.13;52.67;101765.66;4997156;28;20046;-71
2022/09/11 01:27:35;;;;;;;8.45;7.07;;;;;;;23.16;52.61;101770.59;4981417;28;20085;-71
2022/09/11 01:30:06;;;;;;;11.20;7.47;;;;;;;23.16;52.47;101770.59;4997767;28;20087;-72
2022/09/11 01:33:01;;;;;;;9.75;7.07;;;;;;;23.13;52.43;101763.81;4978956;28;20655;-71
2022/09/11 01:35:48;;;;;;;8.85;6.93;;;;;;;23.13;52.74;101766.47;4977215;28;20046;-72
2022/09/11 01:38:42;;;;;;;9.52;7.35;;;;;;;23.11;52.47;101757.84;4993971;28;20456;-71
2022/09/11 01:41:17;;;;;;;10.27;7.13;;;;;;;23.13;52.48;101768.31;4987502;28;20045;-72
2022/09/11 01:43:50;;;;;;;8.23;6.57;;;;;;;23.12;52.63;101761.34;4992653;28;20038;-72
2022/09/11 01:46:23;;;;;;;10.40;7.03;;;;;;;23.11;52.47;101757.84;4994452;28;20028;-71
2022/09/11 01:49:21;;;;;;;8.95;6.53;;;;;;;23.06;52.69;101759.41;4991588;28;20095;-72
2022/09/11 01:51:55;;;;;;;12.13;7.00;;;;;;;23.09;52.45;101767.00;4991171;28;20062;-72
2022/09/11 01:54:27;;;;;;;8.88;7.00;;;;;;;23.08;52.70;101770.69;5000255;28;20030;-71
2022/09/11 01:56:59;;;;;;;12.68;7.78;;;;;;;23.08;52.72;101776.00;4995911;28;20848;-72
2022/09/11 01:59:39;;;;;;;8.10;6.57;;;;;;;23.07;52.38;101775.16;4994151;28;20026;-72
2022/09/11 02:02:08;;;;;;;9.63;6.90;;;;;;;22.91;52.68;101751.38;4977952;28;20034;-71
2022/09/11 02:05:00;;;;;;;9.10;7.37;;;;;;;23.04;52.55;101777.34;4981655;28;20034;-72
2022/09/11 02:07:40;;;;;;;8.02;6.50;;;;;;;23.06;52.66;101785.97;4980227;28;20460;-72
2022/09/11 02:10:10;;;;;;;9.77;7.30;;;;;;;23.05;52.85;101782.50;4976813;28;20045;-71
2022/09/11 02:12:49;;;;;;;8.75;6.82;;;;;;;23.05;52.43;101779.84;4997651;28;20084;-73
2022/09/11 02:15:16;;;;;;;8.70;6.40;;;;;;;23.00;52.60;101778.72;4996313;28;20034;-70
2022/09/11 02:17:58;;;;;;;7.05;5.82;;;;;;;23.02;52.44;101782.03;4980253;28;20038;-71
2022/09/11 02:20:28;;;;;;;9.30;6.85;;;;;;;23.01;52.53;101783.84;4974482;28;20548;-71
2022/09/11 02:22:54;;;;;;;7.43;6.38;;;;;;;22.97;52.62;101771.91;4996283;28;20120;-72
2022/09/11 02:25:22;;;;;;;8.43;6.00;;;;;;;23.00;52.62;101782.22;4979300;28;20128;-71
2022/09/11 02:27:53;;;;;;;;;;;;;;;23.00;52.84;101784.88;4981785;28;20750;-71
2022/09/11 02:30:19;;;;;;;8.43;6.35;;;;;;;22.99;52.91;101777.91;4977923;28;20607;-72
2022/09/11 02:32:46;;;;;;;8.27;6.60;;;;;;;22.97;52.55;101776.41;4977486;28;20105;-72
2022/09/11 02:35:13;;;;;;;8.77;6.90;;;;;;;23.00;52.70;101786.69;4994835;28;20041;-72
2022/09/11 02:38:07;;;;;;;8.30;6.00;;;;;;;23.01;52.46;101783.03;4976569;28;20138;-71
2022/09/11 02:41:02;;;;;;;7.95;6.03;;;;;;;22.97;52.65;101779.88;4976703;28;20032;-71
2022/09/11 02:43:45;;;;;;;8.02;6.03;;;;;;;22.94;52.76;101774.09;4982062;28;20186;-71
2022/09/11 02:46:29;;;;;;;9.35;6.28;;;;;;;22.94;52.50;101774.09;4990978;28;20049;-71
2022/09/11 02:49:27;;;;;;;7.72;6.22;;;;;;;22.90;52.83;101773.63;4991897;28;20033;-72
2022/09/11 02:52:07;;;;;;;8.02;5.93;;;;;;;22.90;52.82;101777.13;4978536;28;20047;-72
2022/09/11 02:54:55;;;;;;;8.63;6.43;;;;;;;22.90;52.93;101777.13;4978677;28;20038;-71
2022/09/11 02:57:27;;;;;;;7.00;5.90;;;;;;;22.90;52.65;101785.09;4973024;28;20373;-71
2022/09/11 02:59:59;;;;;;;6.97;5.85;;;;;;;22.84;52.60;101771.69;4993009;28;20480;-72
2022/09/11 03:02:27;;;;;;;9.25;5.97;;;;;;;22.89;52.55;101790.56;4975996;28;20038;-72
2022/09/11 03:04:53;;;;;;;9.07;6.07;;;;;;;22.89;52.74;101794.06;4992605;28;20030;-72
2022/09/11 03:07:18;;;;;;;8.32;6.55;;;;;;;22.86;52.84;101786.44;4977162;28;20180;-72
2022/09/11 03:09:44;;;;;;;8.60;6.00;;;;;;;22.84;52.70;101783.16;4993612;28;20042;-72
2022/09/11 03:12:16;;;;;;;7.47;6.20;;;;;;;22.78;52.94;101769.69;4979150;28;20101;-72
2022/09/11 03:14:47;;;;;;;9.00;5.97;;;;;;;22.86;52.88;101778.47;4993866;28;20425;-73
2022/09/11 03:17:13;;;;;;;7.57;5.95;;;;;;;22.85;52.67;101779.47;4980048;28;20442;-72
2022/09/11 03:19:40;;;;;;;7.38;6.18;;;;;;;22.85;52.87;101783.97;4978881;28;20922;-72
2022/09/11 03:22:06;;;;;;;9.40;5.90;;;;;;;22.87;52.62;101789.94;4995561;28;20049;-72
2022/09/11 03:24:32;;;;;;;9.75;6.68;;;;;;;22.86;52.93;101791.75;4977442;28;20046;-71
2022/09/11 03:26:59;;;;;;;7.68;5.82;;;;;;;22.85;52.73;101792.75;4982078;28;20428;-70
2022/09/11 03:29:25;;;;;;;7.40;5.95;;;;;;;22.84;52.83;101788.47;4992636;28;20148;-71
2022/09/11 03:31:51;;;;;;;6.93;6.15;;;;;;;22.82;52.95;101790.47;4993651;28;20033;-72
2022/09/11 03:34:18;;;;;;;8.70;5.88;;;;;;;22.81;52.74;101799.41;4982445;28;20034;-72
2022/09/11 03:36:46;;;;;;;7.57;6.30;;;;;;;22.79;52.82;101801.38;4993061;28;20522;-73
2022/09/11 03:39:13;;;;;;;7.40;5.82;;;;;;;22.83;52.88;101805.41;4996213;28;20060;-71
2022/09/11 03:41:38;;;;;;;7.90;5.82;;;;;;;22.80;52.77;101811.03;4993456;28;20037;-73
2022/09/11 03:44:04;;;;;;;9.63;5.80;;;;;;;22.79;52.60;101812.00;4993446;28;20046;-71
2022/09/11 03:46:30;;;;;;;8.98;6.20;;;;;;;22.79;52.70;101808.53;4974498;28;20045;-71
2022/09/11 03:48:56;;;;;;;7.00;5.43;;;;;;;22.76;52.86;101799.09;4977413;28;20061;-72
2022/09/11 03:51:21;;;;;;;8.52;5.65;;;;;;;22.72;52.69;101796.97;4996216;28;20149;-73
2022/09/11 03:53:47;;;;;;;7.80;5.65;;;;;;;22.79;52.79;101811.19;4992472;28;20369;-72
2022/09/11 03:56:13;;;;;;;7.70;6.05;;;;;;;22.78;52.78;101806.88;4980849;28;20740;-72
2022/09/11 03:58:45;;;;;;;6.82;5.57;;;;;;;22.73;53.02;101806.59;4993157;28;20041;-72
2022/09/11 04:01:13;;;;;;;6.57;5.70;;;;;;;22.76;53.00;101822.16;4972357;28;20563;-72
2022/09/11 04:03:42;;;;;;;7.87;5.73;;;;;;;22.77;52.56;101814.00;4977427;28;20045;-72
2022/09/11 04:06:15;;;;;;;6.80;5.82;;;;;;;22.77;52.86;101818.50;4980290;28;20459;-72
2022/09/11 04:08:42;;;;;;;9.70;6.28;;;;;;;22.77;52.51;101821.97;4996010;28;20041;-72
2022/09/11 04:11:13;;;;;;;7.88;5.43;;;;;;;22.70;52.74;101812.25;4995230;28;20084;-73
2022/09/11 04:13:40;;;;;;;8.18;5.90;;;;;;;22.73;52.60;101815.38;4976848;28;20038;-72
2022/09/11 04:16:14;;;;;;;7.50;5.25;;;;;;;22.77;52.84;101826.47;4975685;28;20042;-72
2022/09/11 04:18:43;;;;;;;6.30;5.38;;;;;;;22.74;52.73;101824.16;4977401;28;20439;-72
2022/09/11 04:21:14;;;;;;;6.57;5.35;;;;;;;22.76;52.52;101830.13;4979210;28;20480;-72
2022/09/11 04:23:40;;;;;;;6.68;5.63;;;;;;;22.72;52.75;101827.00;4982283;28;20080;-72
2022/09/11 04:26:17;;;;;;;6.90;5.18;;;;;;;22.75;52.86;101834.59;4998732;28;20172;-72
2022/09/11 04:28:46;;;;;;;8.32;5.82;;;;;;;22.74;53.01;101837.44;4995995;28;20048;-72
2022/09/11 04:31:14;;;;;;;7.50;5.55;;;;;;;22.70;52.67;101836.13;4982615;28;20041;-71
2022/09/11 04:33:41;;;;;;;6.70;5.32;;;;;;;22.71;52.76;101830.66;4983505;28;20133;-73
2022/09/11 04:36:09;;;;;;;6.65;5.70;;;;;;;22.72;52.67;101842.94;4979520;28;20042;-71
2022/09/11 04:38:36;;;;;;;7.03;5.37;;;;;;;22.69;52.74;101834.50;4997523;28;20037;-71
2022/09/11 04:41:04;;;;;;;7.95;5.45;;;;;;;22.72;52.64;101844.75;4982271;28;20044;-72
2022/09/11 04:43:30;;;;;;;8.50;5.80;;;;;;;22.71;52.63;101843.94;4978145;28;20057;-72
2022/09/11 04:46:00;;;;;;;5.90;5.03;;;;;;;22.71;52.58;101843.09;4981263;28;20049;-71
2022/09/11 04:48:25;;;;;;;5.70;4.80;;;;;;;22.69;52.63;101840.63;4994982;28;20030;-72
2022/09/11 04:51:03;;;;;;;6.93;5.25;;;;;;;22.69;52.75;101851.25;4979246;28;20049;-71
2022/09/11 04:53:28;;;;;;;5.43;4.68;;;;;;;22.53;52.42;101830.91;4977228;28;20443;-71
2022/09/11 04:56:04;;;;;;;6.15;5.00;;;;;;;22.63;52.75;101843.16;4981032;28;20096;-72
2022/09/11 04:58:37;;;;;;;5.75;4.88;;;;;;;22.68;52.93;101851.44;4981555;28;20142;-71
2022/09/11 05:01:08;;;;;;;7.22;5.00;;;;;;;22.67;52.68;101853.25;5001416;28;21369;-72
2022/09/11 05:03:35;;;;;;;6.88;5.20;;;;;;;22.68;52.67;101859.38;4983907;28;20049;-73
2022/09/11 05:06:08;;;;;;;7.03;5.40;;;;;;;22.67;52.80;101860.38;4997853;28;20753;-71
2022/09/11 05:08:35;;;;;;;5.82;4.90;;;;;;;22.66;52.88;101862.22;4980654;28;20133;-71
2022/09/11 05:11:06;;;;;;;5.75;4.78;;;;;;;22.63;52.75;101851.13;4983537;28;20072;-73
2022/09/11 05:13:32;;;;;;;;;;;;;;;22.64;52.57;101855.44;4981783;28;20404;-71
2022/09/11 05:16:11;;;;;;;6.22;4.85;;;;;;;22.65;52.78;101868.53;4978714;28;19921;-73
2022/09/11 05:18:38;;;;;;;5.85;5.03;;;;;;;22.65;52.72;101871.19;4981677;28;20765;-72
2022/09/11 05:21:09;;;;;;;5.40;4.53;;;;;;;22.63;52.64;101870.53;4981234;28;20484;-72
2022/09/11 05:23:35;;;;;;;5.07;4.22;;;;;;;22.66;52.79;101874.66;4998137;28;20107;-72
2022/09/11 05:26:03;;;;;;;4.82;4.25;;;;;;;22.65;52.38;101884.47;4962819;28;20574;-73
2022/09/11 05:28:30;;;;;;;5.68;4.63;;;;;;;22.63;52.87;101881.16;4981468;28;20052;-72
2022/09/11 05:30:57;;;;;;;6.18;4.57;;;;;;;22.63;52.67;101878.50;4980922;28;20034;-73
2022/09/11 05:33:25;;;;;;;5.85;4.78;;;;;;;22.64;52.59;101879.31;4992984;28;20025;-73
2022/09/11 05:35:53;;;;;;;5.75;4.40;;;;;;;22.65;52.71;101883.63;4997754;28;20035;-73
2022/09/11 05:38:22;;;;;;;6.07;4.80;;;;;;;22.64;52.59;101888.13;4981175;28;20898;-73
2022/09/11 05:40:50;;;;;;;6.60;4.40;;;;;;;22.65;52.71;101884.47;4978363;28;20037;-73
2022/09/11 05:43:18;;;;;;;5.15;4.38;;;;;;;22.63;52.68;101891.78;4978109;28;20029;-71
2022/09/11 05:45:55;;;;;;;6.30;4.35;;;;;;;22.64;52.44;101892.59;4974458;28;20973;-73
2022/09/11 05:48:22;;;;;;;5.85;4.18;;;;;;;22.63;52.45;101898.91;4994721;28;20487;-73
2022/09/11 05:51:05;;;;;;;6.30;4.68;;;;;;;22.65;52.57;101897.72;4983915;28;20391;-71
2022/09/11 05:53:32;;;;;;;5.75;4.13;;;;;;;22.62;52.51;101900.72;4981989;28;20045;-72
2022/09/11 05:56:11;;;;;;;5.32;4.07;;;;;;;22.62;52.68;101903.38;4982410;28;20029;-71
2022/09/11 05:58:41;;;;;;;4.10;3.70;;;;;;;22.54;52.48;101903.41;4982709;28;20038;-72
2022/09/11 06:01:12;;;;;;;8.88;4.43;;;;;;;22.64;52.35;101909.34;4967909;28;20100;-73
2022/09/11 06:03:39;;;;;;;5.25;3.83;;;;;;;22.56;52.60;101904.06;4981850;28;20026;-72
2022/09/11 06:06:11;;;;;;;4.85;3.85;;;;;;;22.63;52.64;101915.66;4977102;28;20034;-72
2022/09/11 06:08:39;;;;;;;5.10;4.32;;;;;;;22.64;52.25;101921.81;4961208;28;20136;-72
2022/09/11 06:11:06;;;;;;;5.25;4.45;;;;;;;22.64;52.29;101921.81;4979851;28;20038;-72
2022/09/11 06:13:35;;;;;;;5.57;3.97;;;;;;;22.64;52.20;101917.31;4983368;28;20041;-74
2022/09/11 06:16:02;;;;;;;5.45;4.00;;;;;;;22.60;52.28;101927.44;4996855;28;20095;-73
2022/09/11 06:18:29;;;;;;;4.65;4.13;;;;;;;22.62;52.46;101921.94;4978067;28;20029;-73
2022/09/11 06:21:07;;;;;;;7.22;4.13;;;;;;;22.62;52.52;101929.91;4978852;28;20116;-73
2022/09/11 06:23:40;;;;;;;5.55;4.25;;;;;;;22.63;52.45;101931.59;4980506;28;20092;-73
2022/09/11 06:26:08;;;;;;;4.15;3.75;;;;;;;22.62;52.41;101929.91;4996100;28;20490;-72
2022/09/11 06:28:37;;;;;;;4.32;3.92;;;;;;;22.61;52.42;101929.09;4977897;28;20221;-72
2022/09/11 06:31:05;;;;;;;4.55;3.83;;;;;;;22.61;52.51;101931.75;4979317;28;20041;-73
2022/09/11 06:33:35;;;;;;;4.80;4.00;;;;;;;22.59;52.38;101919.63;4979057;28;20029;-71
2022/09/11 06:36:04;;;;;;;5.15;4.05;;;;;;;22.63;52.21;101928.94;4989066;28;20030;-71
2022/09/11 06:38:33;;;;;;;5.05;4.25;;;;;;;22.60;52.28;101924.78;4993455;28;20486;-72
2022/09/11 06:41:02;;;;;;;5.78;4.00;;;;;;;22.63;52.20;101923.63;4977374;28;20038;-71
2022/09/11 06:43:30;;;;;;;5.53;4.28;;;;;;;22.65;52.41;101929.59;4992227;28;21465;-71
2022/09/11 06:46:11;;;;;;;4.72;4.13;;;;;;;22.66;52.29;101941.88;4979183;28;20034;-71
2022/09/11 06:48:42;;;;;;;6.10;4.18;;;;;;;22.65;52.21;101932.25;4978295;28;20080;-71
2022/09/11 06:51:14;;;;;;;5.18;3.72;;;;;;;22.69;52.19;101938.03;4979905;28;20740;-72
2022/09/11 06:53:41;;;;;;;6.13;4.13;;;;;;;22.71;52.08;101938.69;4997376;28;20038;-71
2022/09/11 06:56:13;;;;;;;6.60;4.18;;;;;;;22.72;52.39;101943.81;4979031;28;20591;-72
2022/09/11 06:58:40;;;;;;;5.00;3.88;;;;;;;22.75;52.38;101940.81;4979721;28;20038;-72
2022/09/11 07:01:09;;;;;;;8.45;4.10;;;;;;;22.76;52.18;101934.50;4994096;28;20757;-72
2022/09/11 07:03:44;;;;;;;6.03;4.35;;;;;;;22.79;52.32;101936.00;4981834;28;20090;-72
2022/09/11 07:06:19;;;;;;;5.72;4.50;;;;;;;22.82;52.14;101939.19;4981019;28;20750;-71
2022/09/11 07:08:55;;;;;;;5.47;4.00;;;;;;;22.78;51.73;101924.53;4994740;28;20121;-72
2022/09/11 07:11:21;;;;;;;6.05;4.10;;;;;;;22.87;52.11;101944.78;4992094;28;20026;-74
2022/09/11 07:13:47;;;;;;;5.53;4.40;;;;;;;22.91;51.57;101934.66;4972336;28;20049;-72
2022/09/11 07:16:15;;;;;;;5.55;4.18;;;;;;;22.94;51.94;101939.59;4998912;28;20034;-72
2022/09/11 07:18:44;;;;;;;7.40;4.53;;;;;;;22.99;51.59;101939.94;4995432;28;20042;-72
2022/09/11 07:21:20;;;;;;;6.65;4.00;;;;;;;23.02;51.69;101949.38;4997344;28;20130;-72
2022/09/11 07:23:50;;;;;;;5.60;4.53;;;;;;;23.04;51.68;101937.56;4978766;28;20199;-72
2022/09/11 07:26:17;;;;;;;7.30;4.22;;;;;;;23.04;51.81;101937.56;4975675;28;21609;-73
2022/09/11 07:28:43;;;;;;;6.68;4.35;;;;;;;23.05;51.73;101944.53;4975684;28;20038;-73
2022/09/11 07:31:12;;;;;;;7.32;4.40;;;;;;;23.06;51.83;101945.38;4995694;28;20052;-73
2022/09/11 07:33:41;;;;;;;8.23;4.82;;;;;;;23.01;51.98;101942.41;4975736;28;20145;-74
2022/09/11 07:36:12;;;;;;;5.35;3.65;;;;;;;23.01;51.87;101951.22;4995926;28;21321;-75
2022/09/11 07:38:43;;;;;;;4.57;3.75;;;;;;;23.02;52.05;101950.22;4977312;28;20033;-73
2022/09/11 07:41:12;;;;;;;6.43;4.22;;;;;;;23.02;51.97;101950.22;4977320;28;20065;-73
2022/09/11 07:43:40;;;;;;;5.82;3.85;;;;;;;23.00;52.13;101948.72;4992905;28;20152;-73
2022/09/11 07:46:08;;;;;;;5.57;3.72;;;;;;;23.05;52.12;101949.03;4999001;28;20042;-73
2022/09/11 07:48:35;;;;;;;7.18;3.80;;;;;;;23.00;51.93;101944.25;4980632;28;20124;-74
2022/09/11 07:51:04;;;;;;;5.20;3.88;;;;;;;23.08;52.27;101954.00;4977153;28;20081;-73
2022/09/11 07:53:37;;;;;;;5.05;3.50;;;;;;;23.09;52.23;101951.16;4980235;28;20409;-73
2022/09/11 07:56:12;;;;;;;6.07;3.85;;;;;;;22.99;52.07;101928.47;4996091;28;20495;-73
2022/09/11 07:58:39;;;;;;;6.78;3.80;;;;;;;23.12;52.23;101955.28;5000878;28;20030;-73
2022/09/11 08:01:07;;;;;;;4.78;3.67;;;;;;;23.10;52.17;101947.50;4978623;28;20041;-73
2022/09/11 08:03:34;;;;;;;5.50;3.63;;;;;;;23.06;51.94;101937.41;4983310;28;20041;-73
2022/09/11 08:06:07;;;;;;;6.65;3.65;;;;;;;23.11;52.22;101943.00;4982682;28;20196;-73
2022/09/11 08:08:34;;;;;;;4.60;3.40;;;;;;;23.19;52.09;101953.59;4980156;28;20159;-74
2022/09/11 08:11:08;;;;;;;5.35;3.60;;;;;;;23.18;52.17;101954.63;4998753;28;20172;-73
2022/09/11 08:13:35;;;;;;;5.32;3.50;;;;;;;23.17;52.49;101955.63;4982157;28;20041;-73
2022/09/11 08:16:01;;;;;;;4.72;3.90;;;;;;;23.16;52.35;101953.94;4984522;28;20081;-73
2022/09/11 08:18:28;;;;;;;5.40;3.65;;;;;;;23.15;52.20;101950.44;4981838;28;20030;-73
2022/09/11 08:21:08;;;;;;;6.45;3.50;;;;;;;23.13;52.42;101944.47;4982812;28;20035;-73
2022/09/11 08:23:35;;;;;;;3.63;3.03;;;;;;;23.22;52.17;101955.91;4998138;28;20038;-73
2022/09/11 08:26:08;;;;;;;4.25;3.17;;;;;;;23.25;52.00;101960.03;5000556;28;20062;-73
2022/09/11 08:28:38;;;;;;;4.20;3.25;;;;;;;23.22;52.27;101961.22;4997499;28;20052;-73
2022/09/11 08:31:05;;;;;;;4.97;3.53;;;;;;;23.24;52.04;101966.38;4995027;28;20034;-73
2022/09/11 08:33:32;;;;;;;4.40;3.00;;;;;;;23.23;52.20;101962.06;4989417;28;20396;-73
2022/09/11 08:35:58;;;;;;;5.43;3.22;;;;;;;23.27;52.17;101968.66;5000096;28;20044;-73
2022/09/11 08:38:26;;;;;;;3.67;3.17;;;;;;;23.25;52.18;101960.03;4999763;28;20153;-72
2022/09/11 08:40:53;;;;;;;3.95;3.40;;;;;;;23.27;52.03;101966.84;4999318;28;20042;-72
2022/09/11 08:43:26;;;;;;;4.38;3.30;;;;;;;23.30;52.13;101966.47;4980504;28;20040;-72
2022/09/11 08:45:57;;;;;;;6.43;3.35;;;;;;;23.32;52.05;101977.75;4984783;28;20026;-72
2022/09/11 08:48:33;;;;;;;4.57;3.33;;;;;;;23.33;51.79;101981.25;4981380;28;20108;-72
2022/09/11 08:51:00;;;;;;;4.88;3.78;;;;;;;23.33;51.89;101978.59;4998727;28;20040;-72
2022/09/11 08:53:29;;;;;;;4.90;3.55;;;;;;;23.31;52.01;101977.94;5002333;28;20091;-72
2022/09/11 08:56:11;;;;;;;5.25;3.58;;;;;;;23.30;52.10;101984.25;5002203;28;20040;-72
2022/09/11 08:58:59;;;;;;;3.95;3.20;;;;;;;23.28;52.25;101988.91;5001114;28;20476;-72
2022/09/11 09:01:27;;;;;;;5.47;3.58;;;;;;;23.28;52.22;101989.75;4959864;28;20096;-72
2022/09/11 09:04:10;;;;;;;4.32;3.30;;;;;;;23.28;52.26;101991.56;4969725;28;20042;-73
2022/09/11 09:07:01;;;;;;;5.63;3.63;;;;;;;23.30;52.36;101993.06;4987115;28;20104;-72
2022/09/11 09:09:49;;;;;;;5.15;3.30;;;;;;;23.33;52.36;101992.69;4994073;28;20037;-72
2022/09/11 09:12:31;;;;;;;3.70;3.30;;;;;;;23.30;52.13;101989.56;4997166;28;21689;-73
2022/09/11 09:15:23;;;;;;;4.32;3.40;;;;;;;23.34;52.12;101993.53;4994836;28;20042;-72
2022/09/11 09:18:11;;;;;;;4.18;3.22;;;;;;;23.36;52.21;101999.53;4998616;28;20040;-73
2022/09/11 09:20:44;;;;;;;4.25;3.17;;;;;;;23.35;51.84;102005.84;4977237;28;20064;-73
2022/09/11 09:23:20;;;;;;;4.57;3.50;;;;;;;23.34;52.13;101996.19;4978755;28;20030;-72
2022/09/11 09:25:51;;;;;;;5.15;3.60;;;;;;;23.34;51.97;101994.38;4978011;28;20519;-72
2022/09/11 09:28:20;;;;;;;4.65;2.92;;;;;;;23.32;52.13;101987.56;4982575;28;20033;-72
2022/09/11 09:30:52;;;;;;;4.38;3.25;;;;;;;23.33;51.98;101989.22;4982155;28;21278;-72
2022/09/11 09:33:34;;;;;;;5.30;3.40;;;;;;;23.33;52.12;101997.19;4981126;28;20030;-72
2022/09/11 09:36:26;;;;;;;4.07;3.45;;;;;;;23.37;52.23;101998.53;4983768;28;20253;-74
2022/09/11 09:38:52;;;;;;;7.03;3.67;;;;;;;23.36;52.01;101996.88;4975551;28;20041;-75
2022/09/11 09:41:31;;;;;;;3.80;3.10;;;;;;;23.33;52.20;102000.69;4992081;28;20120;-74
2022/09/11 09:44:23;;;;;;;4.07;3.13;;;;;;;23.35;52.02;102000.53;4979718;28;20037;-74
2022/09/11 09:46:52;;;;;;;3.92;3.22;;;;;;;23.35;51.97;101996.03;4997608;28;20052;-74
2022/09/11 09:49:26;;;;;;;5.45;3.10;;;;;;;23.23;51.89;101980.66;4997447;28;20041;-74
2022/09/11 09:51:55;;;;;;;4.57;3.20;;;;;;;23.35;51.96;101997.88;4998209;28;20157;-75
2022/09/11 09:54:25;;;;;;;5.43;2.90;;;;;;;23.33;51.81;101997.19;4995746;28;20142;-74
2022/09/11 09:57:04;;;;;;;4.88;3.38;;;;;;;23.37;51.81;102003.84;4994721;28;20048;-74
2022/09/11 09:59:42;;;;;;;4.05;3.15;;;;;;;23.35;51.91;101998.69;4995718;28;20060;-74
2022/09/11 10:02:08;;;;;;;5.90;3.50;;;;;;;23.29;51.85;101988.75;4996159;28;20060;-74
2022/09/11 10:04:34;;;;;;;4.78;3.17;;;;;;;23.36;51.67;101989.72;4999318;28;20488;-74
2022/09/11 10:07:08;;;;;;;5.35;3.33;;;;;;;23.34;51.59;101989.06;4994453;28;20504;-74
2022/09/11 10:09:34;;;;;;;5.93;3.85;;;;;;;23.34;51.88;101999.69;4995760;28;20868;-74
2022/09/11 10:12:06;;;;;;;6.60;3.10;;;;;;;23.34;51.82;101993.53;4992940;28;20037;-74
2022/09/11 10:14:48;;;;;;;4.20;2.92;;;;;;;23.38;51.71;101998.34;4998554;28;20030;-74
2022/09/11 10:17:30;;;;;;;4.03;3.00;;;;;;;23.34;51.54;101990.88;4992867;28;21426;-74
2022/09/11 10:20:12;;;;;;;5.75;3.40;;;;;;;23.36;51.64;101988.91;4996274;28;20033;-74
2022/09/11 10:22:37;;;;;;;4.20;2.97;;;;;;;23.37;51.53;101991.38;4996056;28;20034;-75
2022/09/11 10:25:12;;;;;;;4.18;3.10;;;;;;;23.38;51.77;101989.53;4993853;28;20096;-74
2022/09/11 10:28:07;;;;;;;3.03;2.67;;;;;;;23.36;51.64;101986.25;4978498;28;20128;-74
2022/09/11 10:30:59;;;;;;;4.88;2.97;;;;;;;23.37;51.62;101988.72;4984088;28;20058;-74
2022/09/11 10:33:35;;;;;;;4.97;3.35;;;;;;;23.33;51.58;101995.34;4994974;28;20738;-75
2022/09/11 10:36:04;;;;;;;7.10;3.38;;;;;;;23.39;51.63;101993.84;4991201;28;20040;-74
2022/09/11 10:38:33;;;;;;;5.40;3.03;;;;;;;23.38;51.74;101994.84;5000183;28;20103;-73
2022/09/11 10:41:07;;;;;;;4.82;2.95;;;;;;;23.39;51.64;101988.53;4992229;28;20037;-74
2022/09/11 10:43:48;;;;;;;4.80;3.05;;;;;;;23.34;51.79;101978.44;4990787;28;20048;-73
2022/09/11 10:46:37;;;;;;;3.65;3.10;;;;;;;23.40;51.68;101993.69;4998126;28;20520;-73
2022/09/11 10:49:22;;;;;;;5.45;3.25;;;;;;;23.40;51.58;101987.53;4991356;28;20086;-74
2022/09/11 10:52:00;;;;;;;5.43;3.22;;;;;;;23.39;51.65;101988.53;4999545;28;20052;-73
2022/09/11 10:54:37;;;;;;;4.72;3.10;;;;;;;23.37;51.52;101991.38;4996955;28;20053;-74
2022/09/11 10:57:32;;;;;;;4.30;3.25;;;;;;;23.36;51.59;101997.69;4997612;28;20041;-74
2022/09/11 11:00:23;;;;;;;4.22;3.08;;;;;;;23.34;51.70;102006.81;4996721;28;20088;-74
2022/09/11 11:02:56;;;;;;;3.45;2.90;;;;;;;23.39;51.37;102002.66;4996290;28;20060;-74
2022/09/11 11:05:53;;;;;;;3.83;2.70;;;;;;;23.37;51.36;102009.16;4992012;28;20031;-74
2022/09/11 11:08:18;;;;;;;5.03;3.58;;;;;;;23.38;51.44;102010.81;4994818;28;20497;-74
2022/09/11 11:11:02;;;;;;;6.13;2.90;;;;;;;23.37;51.26;102012.63;4995818;28;20116;-74
2022/09/11 11:13:37;;;;;;;7.72;3.60;;;;;;;23.37;51.38;102017.94;4987836;28;20786;-73
2022/09/11 11:16:20;;;;;;;4.50;3.20;;;;;;;23.38;51.30;102016.94;4994082;28;20100;-74
2022/09/11 11:18:49;;;;;;;4.85;3.45;;;;;;;23.36;51.72;102012.81;4993204;28;20100;-75
2022/09/11 11:21:36;;;;;;;4.80;3.00;;;;;;;23.34;51.57;102007.69;4989921;28;20049;-75
2022/09/11 11:24:31;;;;;;;6.45;3.42;;;;;;;23.36;51.68;102013.66;4993587;28;20149;-73
2022/09/11 11:27:29;;;;;;;3.80;2.95;;;;;;;23.35;51.54;102013.81;4993548;28;20471;-75
2022/09/11 11:29:55;;;;;;;4.70;3.00;;;;;;;23.37;51.94;102017.13;4992721;28;20041;-74
2022/09/11 11:32:47;;;;;;;3.85;3.03;;;;;;;23.36;51.74;102016.31;4995570;28;20030;-75
2022/09/11 11:35:38;;;;;;;3.75;2.78;;;;;;;23.38;51.97;102010.81;4996165;28;20029;-74
2022/09/11 11:38:23;;;;;;;7.70;3.33;;;;;;;23.49;52.06;102007.72;4976324;28;20103;-80
2022/09/11 11:41:03;;;;;;;6.90;2.90;;;;;;;23.65;51.79;101997.03;4995180;28;20042;-75
2022/09/11 11:43:33;;;;;;;9.70;3.33;;;;;;;23.84;51.15;102014.34;4994403;28;20026;-74
2022/09/11 11:46:19;;;;;;;7.22;3.42;;;;;;;23.84;51.10;102003.69;4995827;28;20751;-76
2022/09/11 11:48:55;;;;;;;5.70;3.22;;;;;;;23.94;51.13;102020.25;4992731;28;20108;-77
2022/09/11 11:51:26;;;;;;;9.98;3.42;;;;;;;23.98;51.20;102013.56;4995475;28;20088;-75